Time;durP1;ratioP1;P1;durP2;ratioP2;P2;SDS_P1;SDS_P2;PMS_P1;PMS_P2;Temp;Humidity;BMP_temperature;BMP_pressure;BME280_temperature;BME280_humidity;BME280_pressure;Samples;Min_cycle;Max_cycle;Signal;HPM_P1;HPM_P2
2023/08/03 00:00:37;;;;;;;7.53;1.50;;;15.60;99.90;;;;;;5017768;28;20442;-87
2023/08/03 00:03:05;;;;;;;3.40;1.15;;;15.60;99.90;;;;;;5016844;28;20037;-87
2023/08/03 00:05:32;;;;;;;7.07;1.20;;;15.60;99.90;;;;;;5049677;28;20041;-87
2023/08/03 00:07:59;;;;;;;5.10;1.08;;;15.60;99.90;;;;;;5017973;28;20049;-87
2023/08/03 00:10:25;;;;;;;5.07;1.30;;;15.60;99.90;;;;;;5018064;28;20038;-87
2023/08/03 00:12:52;;;;;;;8.38;1.42;;;15.70;99.90;;;;;;5017596;28;20037;-87
2023/08/03 00:15:19;;;;;;;5.82;1.52;;;15.70;99.90;;;;;;5013787;28;20050;-87
2023/08/03 00:17:46;;;;;;;4.25;1.13;;;15.70;99.90;;;;;;5013967;28;20048;-87
2023/08/03 00:20:13;;;;;;;4.97;1.50;;;15.70;99.90;;;;;;5014702;28;20043;-87
2023/08/03 00:22:39;;;;;;;6.10;1.73;;;15.70;99.90;;;;;;5029978;28;20053;-87
2023/08/03 00:25:06;;;;;;;7.95;1.52;;;15.70;99.90;;;;;;5030412;28;20037;-88
2023/08/03 00:27:33;;;;;;;5.57;1.35;;;15.80;99.90;;;;;;5030353;28;20042;-88
2023/08/03 00:30:00;;;;;;;7.45;1.77;;;15.70;99.90;;;;;;5030413;28;20042;-88
2023/08/03 00:32:26;;;;;;;7.15;1.30;;;15.70;99.90;;;;;;5014197;28;20064;-88
2023/08/03 00:34:54;;;;;;;5.45;1.42;;;15.70;99.90;;;;;;5014164;28;20441;-88
2023/08/03 00:37:21;;;;;;;4.03;1.30;;;15.70;99.90;;;;;;5030382;28;20042;-89
2023/08/03 00:39:48;;;;;;;4.05;1.30;;;15.70;99.90;;;;;;5030268;28;20044;-89
2023/08/03 00:42:14;;;;;;;3.08;1.10;;;15.70;99.90;;;;;;5014487;28;20037;-89
2023/08/03 00:44:41;;;;;;;4.25;1.42;;;15.70;99.90;;;;;;5014569;28;20054;-89
2023/08/03 00:47:08;;;;;;;5.95;1.60;;;15.70;99.90;;;;;;5013974;28;20054;-88
2023/08/03 00:49:35;;;;;;;6.10;1.70;;;15.70;99.90;;;;;;5014570;28;20494;-88
2023/08/03 00:52:01;;;;;;;5.53;1.38;;;15.70;99.90;;;;;;5014061;28;20132;-89
2023/08/03 00:54:28;;;;;;;4.18;1.30;;;15.70;99.90;;;;;;5030422;28;20056;-88
2023/08/03 00:56:55;;;;;;;5.15;1.50;;;15.80;99.90;;;;;;5030586;28;20038;-88
2023/08/03 00:59:22;;;;;;;6.53;1.85;;;15.80;99.90;;;;;;5030310;28;20034;-88
2023/08/03 01:01:48;;;;;;;5.63;1.50;;;15.80;99.90;;;;;;5029862;28;20050;-88
2023/08/03 01:04:15;;;;;;;3.10;1.35;;;15.80;99.90;;;;;;5030122;28;20125;-88
2023/08/03 01:06:42;;;;;;;3.85;1.17;;;15.80;99.90;;;;;;5030160;28;20125;-88
2023/08/03 01:09:09;;;;;;;7.65;1.40;;;15.80;99.90;;;;;;5030206;28;20128;-88
2023/08/03 01:11:36;;;;;;;7.07;1.50;;;15.80;99.90;;;;;;5029726;28;20045;-88
2023/08/03 01:14:03;;;;;;;4.57;1.27;;;15.80;99.90;;;;;;5031853;28;20080;-88
2023/08/03 01:16:30;;;;;;;6.65;1.55;;;15.80;99.90;;;;;;5001479;28;20089;-88
2023/08/03 01:18:57;;;;;;;4.22;1.35;;;15.80;99.90;;;;;;5017251;28;20128;-89
2023/08/03 01:21:25;;;;;;;4.43;1.30;;;15.70;99.90;;;;;;5017334;28;20068;-88
2023/08/03 01:23:52;;;;;;;6.25;1.38;;;15.80;99.90;;;;;;5032695;28;20105;-88
2023/08/03 01:26:19;;;;;;;7.03;1.50;;;15.80;99.90;;;;;;5033326;28;20128;-88
2023/08/03 01:28:46;;;;;;;4.13;1.10;;;15.80;99.90;;;;;;5000855;28;20041;-88
2023/08/03 01:31:15;;;;;;;2.92;1.10;;;15.90;99.90;;;;;;5016921;28;20053;-88
2023/08/03 01:33:41;;;;;;;4.20;1.40;;;15.80;99.90;;;;;;5017069;28;20042;-89
2023/08/03 01:36:08;;;;;;;12.10;1.50;;;15.90;99.90;;;;;;5000856;28;20037;-89
2023/08/03 01:38:35;;;;;;;3.88;1.42;;;15.90;99.90;;;;;;5000960;28;20041;-88
2023/08/03 01:41:01;;;;;;;3.22;1.20;;;15.90;99.90;;;;;;5000419;28;20042;-89
2023/08/03 01:43:28;;;;;;;5.90;1.40;;;15.90;99.90;;;;;;5000523;28;20129;-89
2023/08/03 01:45:55;;;;;;;5.90;1.40;;;15.90;99.90;;;;;;5016639;28;20046;-88
2023/08/03 01:48:22;;;;;;;5.22;1.60;;;15.90;99.90;;;;;;5049478;28;20042;-89
2023/08/03 01:50:48;;;;;;;6.13;1.30;;;15.90;99.90;;;;;;5032703;28;20061;-88
2023/08/03 01:53:17;;;;;;;5.40;1.30;;;15.90;99.90;;;;;;5032802;28;20065;-89
2023/08/03 01:55:47;;;;;;;5.22;1.20;;;15.90;99.90;;;;;;5033079;28;20129;-89
2023/08/03 01:58:14;;;;;;;5.07;1.23;;;15.90;99.90;;;;;;5032624;28;20442;-88
2023/08/03 02:00:40;;;;;;;4.03;1.13;;;15.90;99.90;;;;;;5032636;28;20034;-88
2023/08/03 02:03:07;;;;;;;4.35;1.33;;;15.90;99.90;;;;;;5000257;28;20042;-88
2023/08/03 02:05:34;;;;;;;5.57;1.25;;;15.90;99.90;;;;;;5032800;28;20096;-89
2023/08/03 02:08:00;;;;;;;3.03;0.88;;;15.90;99.90;;;;;;5000214;28;20465;-88
2023/08/03 02:10:27;;;;;;;1.67;0.80;;;15.90;99.90;;;;;;5016163;28;20046;-88
2023/08/03 02:12:54;;;;;;;6.72;1.65;;;15.90;99.90;;;;;;5032346;28;20048;-88
2023/08/03 02:15:21;;;;;;;5.30;0.95;;;15.90;99.90;;;;;;5059174;28;20487;-89
2023/08/03 02:17:48;;;;;;;2.70;1.08;;;15.90;99.90;;;;;;5048479;28;20058;-88
2023/08/03 02:20:14;;;;;;;2.92;0.93;;;15.90;99.90;;;;;;5016341;28;20073;-88
2023/08/03 02:22:41;;;;;;;3.42;1.00;;;15.90;99.90;;;;;;5016360;28;20050;-89
2023/08/03 02:25:08;;;;;;;2.55;1.00;;;15.90;99.90;;;;;;5031484;28;20051;-87
2023/08/03 02:27:35;;;;;;;2.85;1.05;;;15.90;99.90;;;;;;5031989;28;20046;-89
2023/08/03 02:30:01;;;;;;;5.47;1.10;;;15.80;99.90;;;;;;5032171;28;20092;-88
2023/08/03 02:32:28;;;;;;;3.25;1.30;;;15.90;99.90;;;;;;5016301;28;20042;-89
2023/08/03 02:34:55;;;;;;;3.22;1.10;;;15.80;99.90;;;;;;5015859;28;20034;-89
2023/08/03 02:37:22;;;;;;;3.92;1.10;;;15.80;99.90;;;;;;5015932;28;20044;-89
2023/08/03 02:39:48;;;;;;;4.05;0.95;;;15.80;99.90;;;;;;5016059;28;20061;-89
2023/08/03 02:42:15;;;;;;;2.75;0.98;;;15.80;99.90;;;;;;5015936;28;20041;-89
2023/08/03 02:44:42;;;;;;;1.92;0.90;;;15.80;99.90;;;;;;5015902;28;20046;-90
2023/08/03 02:47:08;;;;;;;2.85;1.23;;;15.80;99.90;;;;;;5015567;28;20046;-89
2023/08/03 02:49:35;;;;;;;4.80;1.02;;;15.80;99.90;;;;;;5047974;28;20046;-90
2023/08/03 02:52:02;;;;;;;2.88;0.90;;;15.80;99.90;;;;;;5015569;28;20406;-89
2023/08/03 02:54:29;;;;;;;3.85;1.05;;;15.80;99.90;;;;;;5016011;28;20037;-89
2023/08/03 02:56:55;;;;;;;1.90;0.90;;;15.80;99.90;;;;;;5031604;28;20046;-88
2023/08/03 02:59:22;;;;;;;3.00;1.10;;;15.80;99.90;;;;;;5015292;28;20033;-89
2023/08/03 03:01:49;;;;;;;2.00;1.00;;;15.80;99.90;;;;;;5015340;28;20048;-89
2023/08/03 03:04:15;;;;;;;2.35;1.00;;;15.80;99.90;;;;;;5015132;28;20050;-88
2023/08/03 03:06:42;;;;;;;6.57;0.90;;;15.80;99.90;;;;;;5015454;28;20038;-88
2023/08/03 03:09:10;;;;;;;2.17;1.10;;;15.80;99.90;;;;;;5031171;28;20747;-89
2023/08/03 03:11:36;;;;;;;2.85;1.02;;;15.90;99.90;;;;;;5015213;28;20042;-89
2023/08/03 03:14:03;;;;;;;2.28;1.10;;;15.80;99.90;;;;;;5018271;28;20075;-88
2023/08/03 03:16:30;;;;;;;2.47;1.10;;;15.90;99.90;;;;;;5018760;28;20063;-88
2023/08/03 03:18:56;;;;;;;2.20;1.08;;;15.80;99.90;;;;;;5018424;28;20060;-88
2023/08/03 03:21:24;;;;;;;2.35;1.05;;;15.80;99.90;;;;;;5067168;28;20494;-88
2023/08/03 03:23:50;;;;;;;2.38;1.20;;;15.90;99.90;;;;;;5018209;28;20045;-88
2023/08/03 03:26:17;;;;;;;4.88;1.40;;;15.90;99.90;;;;;;5034311;28;20037;-89
2023/08/03 03:28:44;;;;;;;3.38;1.20;;;15.90;99.90;;;;;;5050967;28;20041;-89
2023/08/03 03:31:10;;;;;;;2.40;1.30;;;15.90;99.90;;;;;;5017737;28;20041;-89
2023/08/03 03:33:37;;;;;;;4.22;1.40;;;15.90;99.90;;;;;;5018519;28;20038;-89
2023/08/03 03:36:04;;;;;;;3.08;1.40;;;15.90;99.90;;;;;;5018108;28;20095;-89
2023/08/03 03:38:31;;;;;;;3.30;1.35;;;15.90;99.90;;;;;;5034054;28;20037;-89
2023/08/03 03:40:57;;;;;;;3.20;1.48;;;15.90;99.90;;;;;;5018214;28;20045;-89
2023/08/03 03:43:24;;;;;;;3.60;1.50;;;15.80;99.90;;;;;;5066751;28;20077;-89
2023/08/03 03:45:51;;;;;;;5.60;1.50;;;15.80;99.90;;;;;;5018253;28;20050;-89
2023/08/03 03:48:17;;;;;;;2.65;1.58;;;15.90;99.90;;;;;;5017600;28;20429;-89
2023/08/03 03:50:44;;;;;;;3.20;1.50;;;15.80;99.90;;;;;;5017538;28;20042;-89
2023/08/03 03:53:11;;;;;;;6.50;1.60;;;15.90;99.90;;;;;;5017970;28;20080;-89
2023/08/03 03:55:37;;;;;;;2.25;1.40;;;15.90;99.90;;;;;;5018211;28;20034;-89
2023/08/03 03:58:04;;;;;;;4.90;1.65;;;15.90;99.90;;;;;;5017435;28;20041;-88
2023/08/03 04:00:33;;;;;;;2.45;1.50;;;15.90;99.90;;;;;;5034119;28;20037;-89
2023/08/03 04:02:59;;;;;;;3.10;1.50;;;15.90;99.90;;;;;;5018036;28;20043;-88
2023/08/03 04:05:26;;;;;;;3.67;1.45;;;15.90;99.90;;;;;;5017200;28;20120;-89
2023/08/03 04:07:53;;;;;;;3.13;1.80;;;15.90;99.90;;;;;;5017627;28;20064;-89
2023/08/03 04:10:20;;;;;;;2.88;1.38;;;15.90;99.90;;;;;;5017567;28;20398;-88
2023/08/03 04:12:47;;;;;;;4.97;1.70;;;15.90;99.90;;;;;;5034126;28;20041;-89
2023/08/03 04:15:14;;;;;;;3.28;1.70;;;15.90;99.90;;;;;;5017234;28;20064;-89
2023/08/03 04:17:45;;;;;;;6.90;1.98;;;15.90;99.90;;;;;;5034191;28;20045;-89
2023/08/03 04:20:12;;;;;;;4.10;2.00;;;15.90;99.90;;;;;;5033974;28;20046;-88
2023/08/03 04:22:39;;;;;;;3.00;1.75;;;15.90;99.90;;;;;;5050336;28;20076;-89
2023/08/03 04:25:06;;;;;;;4.88;2.15;;;15.90;99.90;;;;;;5017553;28;20115;-89
2023/08/03 04:27:33;;;;;;;5.35;2.13;;;15.90;99.90;;;;;;5017739;28;20044;-89
2023/08/03 04:30:00;;;;;;;5.35;2.50;;;15.90;99.90;;;;;;5017624;28;20042;-89
2023/08/03 04:32:27;;;;;;;5.72;3.13;;;15.90;99.90;;;;;;5033620;28;20107;-87
2023/08/03 04:34:53;;;;;;;8.60;3.83;;;15.90;99.90;;;;;;5050324;28;20048;-89
2023/08/03 04:37:20;;;;;;;7.57;3.72;;;15.90;99.90;;;;;;5066198;28;20041;-89
2023/08/03 04:39:49;;;;;;;8.00;4.50;;;15.90;99.90;;;;;;5017850;28;20042;-88
2023/08/03 04:42:15;;;;;;;8.75;4.65;;;16.00;99.90;;;;;;5018095;28;20033;-89
2023/08/03 04:44:42;;;;;;;10.90;5.35;;;15.90;99.90;;;;;;5050056;28;20045;-89
2023/08/03 04:47:09;;;;;;;10.25;5.90;;;16.00;99.90;;;;;;5033930;28;20044;-86
2023/08/03 04:49:36;;;;;;;11.73;6.47;;;16.00;99.90;;;;;;5020981;28;20041;-87
2023/08/03 04:52:03;;;;;;;12.05;6.32;;;16.00;99.90;;;;;;5021040;28;20081;-88
2023/08/03 04:54:29;;;;;;;11.48;6.55;;;16.00;99.90;;;;;;5021057;28;20037;-89
2023/08/03 04:56:56;;;;;;;14.90;6.78;;;16.00;99.90;;;;;;5021035;28;20096;-88
2023/08/03 04:59:23;;;;;;;22.92;7.30;;;16.10;99.90;;;;;;5020971;28;20496;-89
2023/08/03 05:01:50;;;;;;;15.35;7.10;;;15.90;99.90;;;;;;5021041;28;20041;-88
2023/08/03 05:04:16;;;;;;;15.45;7.38;;;16.10;99.90;;;;;;5021132;28;20184;-88
2023/08/03 05:06:43;;;;;;;13.23;7.72;;;16.00;99.90;;;;;;5020965;28;20347;-89
2023/08/03 05:09:10;;;;;;;16.95;7.88;;;16.00;99.90;;;;;;5020800;28;20513;-88
2023/08/03 05:11:37;;;;;;;19.48;8.25;;;16.00;99.90;;;;;;5020705;28;20042;-88
2023/08/03 05:14:03;;;;;;;17.00;7.47;;;16.00;99.90;;;;;;5020958;28;20422;-89
2023/08/03 05:16:30;;;;;;;12.60;7.57;;;16.00;99.90;;;;;;5036834;28;20100;-89
2023/08/03 05:18:57;;;;;;;15.68;7.60;;;16.10;99.90;;;;;;5020892;28;20041;-88
2023/08/03 05:21:23;;;;;;;17.80;7.28;;;16.10;99.90;;;;;;5020535;28;20049;-89
2023/08/03 05:23:53;;;;;;;16.88;7.75;;;16.00;99.90;;;;;;5020847;28;20033;-89
2023/08/03 05:26:19;;;;;;;16.40;6.97;;;16.00;99.90;;;;;;5020935;28;20053;-88
2023/08/03 05:28:46;;;;;;;17.63;7.10;;;16.10;99.90;;;;;;5020563;28;20042;-88
2023/08/03 05:31:13;;;;;;;16.17;7.95;;;16.10;99.90;;;;;;5020363;28;20037;-88
2023/08/03 05:33:39;;;;;;;19.30;7.47;;;16.20;99.90;;;;;;5020438;28;20044;-88
2023/08/03 05:36:08;;;;;;;22.45;7.93;;;16.20;99.90;;;;;;5020340;28;20132;-88
2023/08/03 05:38:35;;;;;;;17.15;7.68;;;16.20;99.90;;;;;;5020709;28;20040;-89
2023/08/03 05:41:05;;;;;;;19.65;7.15;;;16.20;99.90;;;;;;5020280;28;20037;-88
2023/08/03 05:43:31;;;;;;;16.88;7.20;;;16.30;99.90;;;;;;5020339;28;20049;-88
2023/08/03 05:46:00;;;;;;;15.55;6.45;;;16.30;99.90;;;;;;5020453;28;20486;-88
2023/08/03 05:48:29;;;;;;;17.08;6.80;;;16.30;99.90;;;;;;5052707;28;20045;-88
2023/08/03 05:50:57;;;;;;;16.98;6.22;;;16.30;99.90;;;;;;5020073;28;20038;-88
2023/08/03 05:53:24;;;;;;;16.42;6.07;;;16.30;99.90;;;;;;5020327;28;20124;-88
2023/08/03 05:55:51;;;;;;;13.43;5.93;;;16.40;99.90;;;;;;5019961;28;20382;-88
2023/08/03 05:58:18;;;;;;;14.07;4.90;;;16.40;99.90;;;;;;5036288;28;20041;-88
2023/08/03 06:00:49;;;;;;;15.27;5.22;;;16.40;99.90;;;;;;5051193;28;20037;-88
2023/08/03 06:03:18;;;;;;;10.95;3.90;;;16.40;99.90;;;;;;5036143;28;20624;-88
2023/08/03 06:05:49;;;;;;;6.68;3.30;;;16.50;99.90;;;;;;5052090;28;20472;-88
2023/08/03 06:08:25;;;;;;;10.13;3.50;;;16.50;99.90;;;;;;5020091;28;20065;-88
2023/08/03 06:10:53;;;;;;;;;;;16.50;99.90;;;;;;5052553;28;20054;-89
2023/08/03 06:13:31;;;;;;;14.27;3.50;;;16.50;99.90;;;;;;5052623;28;20357;-88
2023/08/03 06:15:59;;;;;;;8.48;3.42;;;16.40;99.90;;;;;;5052225;28;20065;-89
2023/08/03 06:18:29;;;;;;;8.27;2.72;;;16.50;99.90;;;;;;5035956;28;20095;-89
2023/08/03 06:20:56;;;;;;;7.25;2.67;;;16.40;99.90;;;;;;5020186;28;20409;-89
2023/08/03 06:23:25;;;;;;;9.18;3.03;;;16.40;99.90;;;;;;5019198;28;20043;-87
2023/08/03 06:25:54;;;;;;;7.63;2.80;;;16.40;99.90;;;;;;5052135;28;20042;-89
2023/08/03 06:28:22;;;;;;;6.43;2.50;;;16.40;99.90;;;;;;5020232;28;20056;-89
2023/08/03 06:30:51;;;;;;;6.25;2.67;;;16.40;99.90;;;;;;5051962;28;20083;-88
2023/08/03 06:33:21;;;;;;;5.15;2.20;;;16.40;99.90;;;;;;5019354;28;20092;-88
2023/08/03 06:35:51;;;;;;;4.15;1.95;;;16.40;99.90;;;;;;5019403;28;20084;-88
2023/08/03 06:38:24;;;;;;;4.72;1.80;;;16.40;99.90;;;;;;5052149;28;20044;-88
2023/08/03 06:40:51;;;;;;;5.07;1.63;;;16.40;99.90;;;;;;5035405;28;20041;-88
2023/08/03 06:43:18;;;;;;;3.95;2.08;;;16.40;99.90;;;;;;5019357;28;20037;-88
2023/08/03 06:45:45;;;;;;;5.03;1.90;;;16.40;99.90;;;;;;5019197;28;20493;-89
2023/08/03 06:48:12;;;;;;;3.97;2.10;;;16.40;99.90;;;;;;5035234;28;20087;-88
2023/08/03 06:50:39;;;;;;;6.80;2.50;;;16.40;99.90;;;;;;5018817;28;20041;-88
2023/08/03 06:53:05;;;;;;;7.80;2.70;;;16.40;99.90;;;;;;5035397;28;20048;-88
2023/08/03 06:55:32;;;;;;;8.55;2.90;;;16.40;99.90;;;;;;5067768;28;20096;-88
2023/08/03 06:57:59;;;;;;;6.78;3.08;;;16.50;99.90;;;;;;5067795;28;20052;-88
2023/08/03 07:00:26;;;;;;;6.00;3.10;;;16.60;99.90;;;;;;5018952;28;20075;-89
2023/08/03 07:02:53;;;;;;;7.93;3.33;;;16.70;99.90;;;;;;5018580;28;20042;-88
2023/08/03 07:05:20;;;;;;;8.73;3.22;;;16.90;99.90;;;;;;5018613;28;20041;-88
2023/08/03 07:07:46;;;;;;;6.50;3.42;;;17.10;99.90;;;;;;5018317;28;20052;-88
2023/08/03 07:10:13;;;;;;;5.60;2.80;;;17.30;99.90;;;;;;5018574;28;20044;-88
2023/08/03 07:12:42;;;;;;;6.00;2.78;;;17.30;99.90;;;;;;5018360;28;20038;-88
2023/08/03 07:15:12;;;;;;;4.88;2.40;;;17.30;99.90;;;;;;5014925;28;20061;-88
2023/08/03 07:17:39;;;;;;;6.63;2.13;;;17.30;99.90;;;;;;5030285;28;20120;-87
2023/08/03 07:20:08;;;;;;;4.45;2.15;;;17.40;99.90;;;;;;5014845;28;20084;-88
2023/08/03 07:22:37;;;;;;;4.47;2.03;;;17.50;99.90;;;;;;5031079;28;20116;-88
2023/08/03 07:25:05;;;;;;;4.00;2.00;;;17.50;99.90;;;;;;5031251;28;20045;-87
2023/08/03 07:27:32;;;;;;;4.05;1.48;;;17.50;99.90;;;;;;5030990;28;20482;-88
2023/08/03 07:29:59;;;;;;;6.18;1.60;;;17.60;99.90;;;;;;5030629;28;20115;-88
2023/08/03 07:32:26;;;;;;;2.72;1.25;;;17.50;99.90;;;;;;5030830;28;20065;-88
2023/08/03 07:34:53;;;;;;;4.68;1.50;;;17.50;99.90;;;;;;5014735;28;20042;-87
2023/08/03 07:37:19;;;;;;;3.70;1.40;;;17.50;99.90;;;;;;5030991;28;20042;-87
2023/08/03 07:39:46;;;;;;;4.10;1.38;;;17.50;99.90;;;;;;5014404;28;20074;-88
2023/08/03 07:42:13;;;;;;;5.13;1.40;;;17.60;99.90;;;;;;5014880;28;20711;-87
2023/08/03 07:44:39;;;;;;;3.47;1.50;;;17.60;99.90;;;;;;5030280;28;20056;-87
2023/08/03 07:47:06;;;;;;;3.60;1.30;;;17.70;99.90;;;;;;5014394;28;20081;-87
2023/08/03 07:49:33;;;;;;;3.75;1.30;;;17.90;99.90;;;;;;5030428;28;20041;-87
2023/08/03 07:51:59;;;;;;;2.72;1.30;;;17.90;99.90;;;;;;5014255;28;20046;-87
2023/08/03 07:54:26;;;;;;;2.10;1.02;;;17.90;99.90;;;;;;5030837;28;20446;-87
2023/08/03 07:56:53;;;;;;;4.93;1.23;;;17.90;99.90;;;;;;5030140;28;20479;-87
2023/08/03 07:59:19;;;;;;;1.88;0.90;;;18.00;99.90;;;;;;5014310;28;20037;-87
2023/08/03 08:01:46;;;;;;;2.30;1.23;;;18.10;99.90;;;;;;5030261;28;20129;-88
2023/08/03 08:04:14;;;;;;;3.38;1.15;;;18.10;99.90;;;;;;5030521;28;20042;-88
2023/08/03 08:06:41;;;;;;;1.85;0.90;;;18.10;99.90;;;;;;5014186;28;20041;-87
2023/08/03 08:09:08;;;;;;;1.83;0.70;;;18.10;99.90;;;;;;5030493;28;20505;-87
2023/08/03 08:11:34;;;;;;;1.52;0.80;;;18.10;99.90;;;;;;5030903;28;20080;-87
2023/08/03 08:14:01;;;;;;;0.95;0.70;;;18.10;99.90;;;;;;5032915;28;20054;-88
2023/08/03 08:16:28;;;;;;;3.60;0.80;;;18.20;99.90;;;;;;5017663;28;20076;-88
2023/08/03 08:18:57;;;;;;;0.93;0.70;;;18.30;99.90;;;;;;5018206;28;20084;-88
2023/08/03 08:21:24;;;;;;;2.17;0.90;;;18.50;99.90;;;;;;5017677;28;20077;-88
2023/08/03 08:23:51;;;;;;;2.33;1.00;;;18.40;99.90;;;;;;5020969;28;20069;-88
2023/08/03 08:26:18;;;;;;;3.20;1.00;;;18.60;99.90;;;;;;5023240;28;20053;-88
2023/08/03 08:28:47;;;;;;;3.00;0.93;;;18.80;99.90;;;;;;5021395;28;20068;-88
2023/08/03 08:31:14;;;;;;;1.38;0.90;;;18.70;99.90;;;;;;5054202;28;20504;-87
2023/08/03 08:33:40;;;;;;;3.28;0.93;;;18.70;99.90;;;;;;5070459;28;20128;-87
2023/08/03 08:36:07;;;;;;;2.53;0.88;;;18.70;99.90;;;;;;5070191;28;20034;-88
2023/08/03 08:38:34;;;;;;;3.17;1.00;;;18.70;99.90;;;;;;5021816;28;20402;-87
2023/08/03 08:41:02;;;;;;;2.30;0.90;;;18.70;99.90;;;;;;5021039;28;20049;-88
2023/08/03 08:43:29;;;;;;;3.10;1.02;;;18.80;99.90;;;;;;5053656;28;20045;-87
2023/08/03 08:45:56;;;;;;;3.83;1.00;;;19.00;99.90;;;;;;5053649;28;20099;-88
2023/08/03 08:48:23;;;;;;;4.47;1.00;;;19.10;99.90;;;;;;5037235;28;20049;-88
2023/08/03 08:50:51;;;;;;;5.13;1.10;;;19.20;99.90;;;;;;5037292;28;20049;-88
2023/08/03 08:53:18;;;;;;;3.80;0.98;;;19.20;99.90;;;;;;5021427;28;20049;-88
2023/08/03 08:55:46;;;;;;;3.13;0.90;;;19.40;99.90;;;;;;5020703;28;20238;-87
2023/08/03 08:58:13;;;;;;;4.75;1.13;;;19.60;99.90;;;;;;5021461;28;20033;-87
2023/08/03 09:00:45;;;;;;;2.63;0.90;;;19.80;99.90;;;;;;5036940;28;20038;-88
2023/08/03 09:03:16;;;;;;;2.10;0.85;;;19.90;99.90;;;;;;5021910;28;20047;-87
2023/08/03 09:05:42;;;;;;;2.83;1.00;;;20.00;99.90;;;;;;5053166;28;20052;-88
2023/08/03 09:08:14;;;;;;;4.18;0.90;;;20.20;99.90;;;;;;5020817;28;20424;-89
2023/08/03 09:10:50;;;;;;;4.60;0.95;;;20.30;99.90;;;;;;5037092;28;20045;-88
2023/08/03 09:13:32;;;;;;;3.13;1.08;;;20.00;99.90;;;;;;5053769;28;20047;-88
2023/08/03 09:15:59;;;;;;;3.10;0.93;;;20.10;99.90;;;;;;5034304;28;20061;-89
2023/08/03 09:18:29;;;;;;;3.55;1.08;;;20.20;99.90;;;;;;5017542;28;20050;-88
2023/08/03 09:21:09;;;;;;;4.05;1.33;;;20.20;99.90;;;;;;5017080;28;20052;-88
2023/08/03 09:23:39;;;;;;;3.47;0.95;;;20.20;99.90;;;;;;5017734;28;20042;-88
2023/08/03 09:26:06;;;;;;;3.30;0.90;;;19.90;99.90;;;;;;5017809;28;20041;-88
2023/08/03 09:28:36;;;;;;;5.68;1.00;;;19.90;99.90;;;;;;5017326;28;20053;-88
2023/08/03 09:31:04;;;;;;;3.22;0.98;;;20.00;99.90;;;;;;5033082;28;20050;-88
2023/08/03 09:33:33;;;;;;;3.88;1.00;;;20.20;99.90;;;;;;5001134;28;20037;-88
2023/08/03 09:36:04;;;;;;;5.10;0.90;;;20.30;99.90;;;;;;5017357;28;20050;-88
2023/08/03 09:38:30;;;;;;;2.47;0.70;;;20.00;99.90;;;;;;5017204;28;20076;-89
2023/08/03 09:40:58;;;;;;;1.58;0.70;;;20.00;99.90;;;;;;5032867;28;20073;-88
2023/08/03 09:43:26;;;;;;;4.10;0.93;;;19.80;99.90;;;;;;5017188;28;20096;-89
2023/08/03 09:45:54;;;;;;;5.90;1.10;;;19.90;99.90;;;;;;5033134;28;20070;-88
2023/08/03 09:48:21;;;;;;;5.35;1.20;;;19.90;99.90;;;;;;5016720;28;20125;-89
2023/08/03 09:50:53;;;;;;;3.40;1.00;;;19.80;99.90;;;;;;5016773;28;20717;-88
2023/08/03 09:53:23;;;;;;;3.42;1.00;;;19.80;99.90;;;;;;5000711;28;20081;-88
2023/08/03 09:56:00;;;;;;;3.00;0.90;;;19.80;99.90;;;;;;5032737;28;20490;-88
2023/08/03 09:58:48;;;;;;;4.47;1.10;;;19.80;99.90;;;;;;5033274;28;20038;-88
2023/08/03 10:01:21;;;;;;;4.80;0.93;;;20.00;99.90;;;;;;5033004;28;20050;-89
2023/08/03 10:03:53;;;;;;;3.92;0.93;;;20.20;99.90;;;;;;5033191;28;20038;-89
2023/08/03 10:06:25;;;;;;;3.97;1.25;;;20.40;99.90;;;;;;5032886;28;20053;-89
2023/08/03 10:08:56;;;;;;;3.92;1.02;;;20.20;99.90;;;;;;5033137;28;20133;-88
2023/08/03 10:11:28;;;;;;;4.22;0.93;;;20.20;99.90;;;;;;5032825;28;20042;-89
2023/08/03 10:13:58;;;;;;;3.20;1.00;;;20.20;99.90;;;;;;5018295;28;20402;-89
2023/08/03 10:16:25;;;;;;;3.00;1.23;;;20.10;99.90;;;;;;5020580;28;20048;-88
2023/08/03 10:18:53;;;;;;;4.88;1.35;;;20.10;99.90;;;;;;5036480;28;20397;-88
2023/08/03 10:21:20;;;;;;;6.60;1.30;;;20.00;99.90;;;;;;5035959;28;20501;-88
2023/08/03 10:24:17;;;;;;;2.25;1.10;;;20.10;99.90;;;;;;5036622;28;20037;-89
2023/08/03 10:26:54;;;;;;;6.07;1.40;;;20.00;99.90;;;;;;5020496;28;20088;-88
2023/08/03 10:29:56;;;;;;;3.17;1.20;;;19.90;99.90;;;;;;5019388;28;20472;-88
2023/08/03 10:32:28;;;;;;;6.82;1.20;;;19.80;99.90;;;;;;5068193;28;20077;-88
2023/08/03 10:34:59;;;;;;;3.63;1.20;;;19.90;99.90;;;;;;5035584;28;20044;-89
2023/08/03 10:37:26;;;;;;;6.22;1.23;;;20.20;99.90;;;;;;5019875;28;20041;-88
2023/08/03 10:39:53;;;;;;;6.78;1.40;;;20.50;99.90;;;;;;5019299;28;20121;-88
2023/08/03 10:42:25;;;;;;;5.07;1.30;;;20.70;99.90;;;;;;5051555;28;20482;-89
2023/08/03 10:44:53;;;;;;;3.63;1.35;;;20.70;99.90;;;;;;5019039;28;20410;-88
2023/08/03 10:47:29;;;;;;;7.40;1.83;;;20.50;99.90;;;;;;5018403;28;20044;-87
2023/08/03 10:49:58;;;;;;;6.28;1.50;;;20.30;99.90;;;;;;5051367;28;20116;-88
2023/08/03 10:52:27;;;;;;;3.60;1.55;;;20.20;99.90;;;;;;5018744;28;20046;-88
2023/08/03 10:54:56;;;;;;;5.93;1.42;;;20.10;99.90;;;;;;5051249;28;20044;-88
2023/08/03 10:57:32;;;;;;;4.68;1.45;;;20.10;99.90;;;;;;5018556;28;20100;-88
2023/08/03 11:00:02;;;;;;;4.85;1.48;;;20.10;99.90;;;;;;5019251;28;20050;-88
2023/08/03 11:02:31;;;;;;;6.55;1.58;;;20.10;99.90;;;;;;5035191;28;20037;-88
2023/08/03 11:05:05;;;;;;;6.00;1.50;;;20.20;99.90;;;;;;5050952;28;20056;-88
2023/08/03 11:07:43;;;;;;;3.78;1.50;;;20.30;99.90;;;;;;5051202;28;20456;-88
2023/08/03 11:10:13;;;;;;;6.10;1.52;;;20.60;99.90;;;;;;5051095;28;20493;-87
2023/08/03 11:12:41;;;;;;;5.22;1.70;;;20.80;99.90;;;;;;5034865;28;20053;-88
2023/08/03 11:15:09;;;;;;;5.80;1.45;;;20.80;99.90;;;;;;5050545;28;20060;-87
2023/08/03 11:17:37;;;;;;;7.82;1.90;;;20.80;99.90;;;;;;5034456;28;20033;-88
2023/08/03 11:20:07;;;;;;;5.80;1.60;;;20.60;99.90;;;;;;5034664;28;20076;-87
2023/08/03 11:22:34;;;;;;;6.35;1.67;;;20.50;99.90;;;;;;5035034;28;20056;-88
2023/08/03 11:25:03;;;;;;;7.00;1.80;;;20.50;99.90;;;;;;5018475;28;20045;-88
2023/08/03 11:27:31;;;;;;;6.28;1.90;;;20.70;99.90;;;;;;5034197;28;20136;-88
2023/08/03 11:29:58;;;;;;;5.95;1.83;;;20.90;99.90;;;;;;5018771;28;20041;-88
2023/08/03 11:32:27;;;;;;;3.38;1.48;;;21.20;99.90;;;;;;5017908;28;20195;-88
2023/08/03 11:34:58;;;;;;;7.45;1.80;;;21.30;99.90;;;;;;5050963;28;20041;-88
2023/08/03 11:37:33;;;;;;;6.32;1.65;;;21.60;99.90;;;;;;5018288;28;20046;-89
2023/08/03 11:40:03;;;;;;;5.03;1.90;;;21.20;99.90;;;;;;5050795;28;20138;-89
2023/08/03 11:42:31;;;;;;;5.93;1.50;;;21.20;99.90;;;;;;5033906;28;20477;-89
2023/08/03 11:44:58;;;;;;;7.63;1.60;;;20.90;99.90;;;;;;5017837;28;20091;-88
2023/08/03 11:47:25;;;;;;;7.15;1.80;;;20.80;99.90;;;;;;5034221;28;20489;-89
2023/08/03 11:49:52;;;;;;;6.72;1.40;;;21.00;99.90;;;;;;5018462;28;20041;-89
2023/08/03 11:52:20;;;;;;;4.22;1.55;;;21.20;99.90;;;;;;5017975;28;20045;-88
2023/08/03 11:54:48;;;;;;;6.55;1.50;;;21.50;99.90;;;;;;5034347;28;20041;-88
2023/08/03 12:00:03;;;;;;;6.60;1.50;;;21.90;99.90;;;;;;5036511;28;20047;-88
2023/08/03 12:02:41;;;;;;;4.47;1.60;;;21.80;99.90;;;;;;5034306;28;20048;-88
2023/08/03 12:05:08;;;;;;;6.82;1.70;;;21.40;99.90;;;;;;5034102;28;20469;-88
2023/08/03 12:07:35;;;;;;;4.53;1.42;;;21.30;99.90;;;;;;5034332;28;20041;-89
2023/08/03 12:10:13;;;;;;;7.97;1.63;;;21.10;99.90;;;;;;5017963;28;20048;-89
2023/08/03 12:12:43;;;;;;;6.88;1.38;;;21.30;99.90;;;;;;5034137;28;20572;-88
2023/08/03 12:15:10;;;;;;;5.90;1.50;;;21.50;99.90;;;;;;5050223;28;20049;-88
2023/08/03 12:17:37;;;;;;;6.28;1.45;;;21.70;99.90;;;;;;5017962;28;20046;-88
2023/08/03 12:20:05;;;;;;;4.07;1.40;;;21.90;99.90;;;;;;5018318;28;20107;-88
2023/08/03 12:22:33;;;;;;;4.18;1.20;;;21.80;99.90;;;;;;5033756;28;20490;-89
2023/08/03 12:25:03;;;;;;;3.53;1.10;;;21.70;99.90;;;;;;5050597;28;20101;-89
2023/08/03 12:27:29;;;;;;;3.40;1.20;;;21.50;99.90;;;;;;5050059;28;20520;-89
2023/08/03 12:29:56;;;;;;;3.70;1.17;;;21.30;99.90;;;;;;5018001;28;20056;-88
2023/08/03 12:32:23;;;;;;;4.68;1.33;;;21.10;99.90;;;;;;5017715;28;20038;-88
2023/08/03 12:34:49;;;;;;;2.60;0.98;;;21.00;99.90;;;;;;5050380;28;20034;-89
2023/08/03 12:37:16;;;;;;;2.65;0.95;;;21.10;99.90;;;;;;5017524;28;20042;-87
2023/08/03 12:39:43;;;;;;;4.75;1.20;;;21.30;99.90;;;;;;5017496;28;20045;-88
2023/08/03 12:42:10;;;;;;;1.88;0.85;;;21.50;99.90;;;;;;5018132;28;20132;-88
2023/08/03 12:44:37;;;;;;;1.60;0.80;;;21.50;99.90;;;;;;5017549;28;20473;-89
2023/08/03 12:47:04;;;;;;;4.47;0.88;;;21.50;99.90;;;;;;5017601;28;20047;-87
2023/08/03 12:49:35;;;;;;;3.42;0.98;;;21.60;99.90;;;;;;5033645;28;20050;-89
2023/08/03 12:52:02;;;;;;;3.33;1.10;;;21.80;99.90;;;;;;5017912;28;20088;-89